ETR8371 SVMI-SVBM
Flight info
| Callsign | ETR8371 |
|---|---|
| Flight time | 0h 36m |
| Altitude | 24000 |
| Route | MARES A315 ATONO G427 PBL W9 MULCA W24 BRM |
| Aircraft | B736/M-SDE2E3FGHIRWXY/LB1 |
Departure
| Time | 2026-04-21 04:28 |
|---|---|
| Airport | Maiquetía Simón Bolívar International Airport (SVMI) |
Arrival
| Time | 2026-04-21 05:05 |
|---|---|
| Airport | Jacinto Lara International Airport (SVBM) |
| Time | Latitude | Longitude | Altitude | Speed | Heading |
|---|---|---|---|---|---|
| 2026-04-21 03:27 | 10.59827 | -67.00151 | 221 ft | 0 kts | 178° |
| 2026-04-21 03:30 | 10.59831 | -67.00151 | 223 ft | 0 kts | 178° |
| 2026-04-21 04:17 | 10.59832 | -67.00151 | 221 ft | 2 kts | 178° |
| 2026-04-21 04:17 | 10.59857 | -67.00151 | 223 ft | 4 kts | 178° |
| 2026-04-21 04:17 | 10.59879 | -67.00152 | 221 ft | 2 kts | 178° |
| 2026-04-21 04:17 | 10.59901 | -67.00157 | 222 ft | 4 kts | 128° |
| 2026-04-21 04:18 | 10.59906 | -67.00178 | 222 ft | 4 kts | 88° |
| 2026-04-21 04:18 | 10.59906 | -67.00186 | 222 ft | 1 kts | 88° |
| 2026-04-21 04:23 | 10.59906 | -67.00181 | 222 ft | 1 kts | 88° |
| 2026-04-21 04:23 | 10.59907 | -67.00169 | 222 ft | 2 kts | 88° |
| 2026-04-21 04:23 | 10.59907 | -67.00151 | 222 ft | 4 kts | 88° |
| 2026-04-21 04:23 | 10.59909 | -67.00109 | 221 ft | 8 kts | 88° |
| 2026-04-21 04:24 | 10.59911 | -67.00037 | 220 ft | 12 kts | 88° |
| 2026-04-21 04:24 | 10.59921 | -66.99941 | 220 ft | 15 kts | 72° |
| 2026-04-21 04:24 | 10.59992 | -66.99910 | 224 ft | 13 kts | 358° |
| 2026-04-21 04:24 | 10.60013 | -66.99911 | 218 ft | 0 kts | 357° |
| 2026-04-21 04:25 | 10.60028 | -66.99912 | 218 ft | 4 kts | 357° |
| 2026-04-21 04:25 | 10.60061 | -66.99914 | 217 ft | 5 kts | 354° |
| 2026-04-21 04:25 | 10.60107 | -66.99915 | 218 ft | 6 kts | 9° |
| 2026-04-21 04:25 | 10.60144 | -66.99893 | 216 ft | 7 kts | 64° |
| 2026-04-21 04:26 | 10.60142 | -66.99835 | 214 ft | 10 kts | 98° |
| 2026-04-21 04:26 | 10.60140 | -66.99817 | 213 ft | 11 kts | 93° |
| 2026-04-21 04:26 | 10.60139 | -66.99784 | 219 ft | 13 kts | 92° |
| 2026-04-21 04:26 | 10.60123 | -66.99680 | 210 ft | 16 kts | 133° |
| 2026-04-21 04:27 | 10.60025 | -66.99662 | 218 ft | 13 kts | 178° |
| 2026-04-21 04:27 | 10.59939 | -66.99655 | 218 ft | 13 kts | 158° |
| 2026-04-21 04:27 | 10.59913 | -66.99594 | 214 ft | 0 kts | 72° |
| 2026-04-21 04:27 | 10.59923 | -66.99564 | 220 ft | 10 kts | 72° |
| 2026-04-21 04:28 | 10.59954 | -66.99435 | 207 ft | 61 kts | 77° |
| 2026-04-21 04:28 | 10.60154 | -66.98601 | 262 ft | 172 kts | 77° |
| 2026-04-21 04:28 | 10.60485 | -66.97179 | 849 ft | 233 kts | 76° |
| 2026-04-21 04:28 | 10.61254 | -66.95731 | 2604 ft | 232 kts | 40° |
| 2026-04-21 04:29 | 10.62699 | -66.95021 | 3962 ft | 245 kts | 15° |
| 2026-04-21 04:29 | 10.64470 | -66.95179 | 3989 ft | 268 kts | 339° |
| 2026-04-21 04:29 | 10.65902 | -66.96407 | 3999 ft | 277 kts | 304° |
| 2026-04-21 04:29 | 10.66450 | -66.98258 | 4024 ft | 281 kts | 278° |
| 2026-04-21 04:30 | 10.66771 | -67.00212 | 3999 ft | 280 kts | 283° |
| 2026-04-21 04:30 | 10.67178 | -67.02181 | 3997 ft | 281 kts | 283° |
| 2026-04-21 04:30 | 10.67563 | -67.04103 | 4004 ft | 282 kts | 283° |
| 2026-04-21 04:30 | 10.67940 | -67.06060 | 4000 ft | 283 kts | 282° |
| 2026-04-21 04:31 | 10.68438 | -67.07983 | 3984 ft | 281 kts | 298° |
| 2026-04-21 04:31 | 10.69556 | -67.09573 | 4003 ft | 277 kts | 311° |
| 2026-04-21 04:31 | 10.70774 | -67.11089 | 3999 ft | 275 kts | 311° |
| 2026-04-21 04:31 | 10.71986 | -67.12597 | 3987 ft | 274 kts | 311° |
| 2026-04-21 04:32 | 10.73192 | -67.14095 | 3999 ft | 274 kts | 311° |
| 2026-04-21 04:32 | 10.74402 | -67.15607 | 4002 ft | 276 kts | 311° |
| 2026-04-21 04:32 | 10.75610 | -67.17121 | 4002 ft | 275 kts | 311° |
| 2026-04-21 04:32 | 10.76815 | -67.18637 | 3997 ft | 275 kts | 311° |
| 2026-04-21 04:33 | 10.78012 | -67.20150 | 3997 ft | 274 kts | 311° |
| 2026-04-21 04:33 | 10.79202 | -67.21660 | 3997 ft | 273 kts | 310° |
| 2026-04-21 04:33 | 10.80368 | -67.23209 | 4294 ft | 279 kts | 309° |
| 2026-04-21 04:33 | 10.81540 | -67.24794 | 5251 ft | 282 kts | 308° |
| 2026-04-21 04:34 | 10.82713 | -67.26385 | 6247 ft | 284 kts | 308° |
| 2026-04-21 04:34 | 10.83917 | -67.28015 | 7184 ft | 290 kts | 308° |
| 2026-04-21 04:34 | 10.85136 | -67.29665 | 8172 ft | 293 kts | 308° |
| 2026-04-21 04:34 | 10.86370 | -67.31332 | 9178 ft | 298 kts | 308° |
| 2026-04-21 04:35 | 10.87623 | -67.33026 | 10187 ft | 302 kts | 308° |
| 2026-04-21 04:35 | 10.88925 | -67.34784 | 10805 ft | 324 kts | 308° |
| 2026-04-21 04:35 | 10.90336 | -67.36690 | 11250 ft | 346 kts | 307° |
| 2026-04-21 04:35 | 10.91800 | -67.38668 | 12151 ft | 351 kts | 308° |
| 2026-04-21 04:36 | 10.93270 | -67.40654 | 13198 ft | 353 kts | 307° |
| 2026-04-21 04:36 | 10.94756 | -67.42661 | 14122 ft | 358 kts | 307° |
| 2026-04-21 04:36 | 10.96219 | -67.44747 | 14987 ft | 365 kts | 300° |
| 2026-04-21 04:36 | 10.97011 | -67.47205 | 15854 ft | 371 kts | 277° |
| 2026-04-21 04:37 | 10.96849 | -67.49832 | 16756 ft | 376 kts | 256° |
| 2026-04-21 04:37 | 10.95781 | -67.52274 | 17592 ft | 382 kts | 235° |
| 2026-04-21 04:37 | 10.94106 | -67.54376 | 18391 ft | 386 kts | 229° |
| 2026-04-21 04:37 | 10.92314 | -67.56442 | 19119 ft | 393 kts | 229° |
| 2026-04-21 04:38 | 10.90481 | -67.58528 | 19786 ft | 399 kts | 229° |
| 2026-04-21 04:38 | 10.88623 | -67.60658 | 20470 ft | 404 kts | 229° |
| 2026-04-21 04:38 | 10.86754 | -67.62824 | 21135 ft | 410 kts | 229° |
| 2026-04-21 04:38 | 10.84876 | -67.65020 | 21785 ft | 414 kts | 229° |
| 2026-04-21 04:39 | 10.82977 | -67.67253 | 22380 ft | 420 kts | 230° |
| 2026-04-21 04:39 | 10.81059 | -67.69512 | 22956 ft | 424 kts | 230° |
| 2026-04-21 04:39 | 10.79118 | -67.71795 | 23494 ft | 430 kts | 230° |
| 2026-04-21 04:39 | 10.77177 | -67.74078 | 23934 ft | 434 kts | 230° |
| 2026-04-21 04:40 | 10.75175 | -67.76427 | 23975 ft | 446 kts | 229° |
| 2026-04-21 04:40 | 10.73122 | -67.78834 | 23989 ft | 456 kts | 229° |
| 2026-04-21 04:40 | 10.71020 | -67.81298 | 23994 ft | 465 kts | 229° |
| 2026-04-21 04:40 | 10.68885 | -67.83801 | 23990 ft | 471 kts | 229° |
| 2026-04-21 04:41 | 10.66751 | -67.86302 | 23975 ft | 468 kts | 229° |
| 2026-04-21 04:41 | 10.64614 | -67.88807 | 23972 ft | 468 kts | 229° |
| 2026-04-21 04:41 | 10.62484 | -67.91304 | 23971 ft | 468 kts | 229° |
| 2026-04-21 04:41 | 10.60349 | -67.93805 | 23973 ft | 468 kts | 229° |
| 2026-04-21 04:42 | 10.58215 | -67.96306 | 23972 ft | 468 kts | 229° |
| 2026-04-21 04:42 | 10.56080 | -67.98808 | 23972 ft | 468 kts | 229° |
| 2026-04-21 04:42 | 10.53947 | -68.01305 | 23974 ft | 469 kts | 229° |
| 2026-04-21 04:42 | 10.51809 | -68.03809 | 23974 ft | 469 kts | 230° |
| 2026-04-21 04:43 | 10.49899 | -68.06501 | 23968 ft | 469 kts | 240° |
| 2026-04-21 04:43 | 10.48480 | -68.09475 | 23979 ft | 469 kts | 249° |
| 2026-04-21 04:43 | 10.47527 | -68.12635 | 23972 ft | 468 kts | 259° |
| 2026-04-21 04:43 | 10.46989 | -68.15898 | 23979 ft | 468 kts | 262° |
| 2026-04-21 04:44 | 10.46515 | -68.19167 | 23971 ft | 468 kts | 263° |
| 2026-04-21 04:44 | 10.46048 | -68.22441 | 23974 ft | 468 kts | 262° |
| 2026-04-21 04:44 | 10.45573 | -68.25704 | 23974 ft | 467 kts | 262° |
| 2026-04-21 04:44 | 10.45083 | -68.28968 | 23972 ft | 468 kts | 262° |
| 2026-04-21 04:45 | 10.44581 | -68.32230 | 23972 ft | 467 kts | 262° |
| 2026-04-21 04:45 | 10.44074 | -68.35488 | 23972 ft | 468 kts | 262° |
| 2026-04-21 04:45 | 10.43561 | -68.38750 | 23972 ft | 467 kts | 262° |
| 2026-04-21 04:45 | 10.43046 | -68.42012 | 23973 ft | 467 kts | 262° |
| 2026-04-21 04:46 | 10.42535 | -68.45256 | 23971 ft | 467 kts | 262° |
| 2026-04-21 04:46 | 10.42021 | -68.48516 | 23972 ft | 467 kts | 262° |
| 2026-04-21 04:46 | 10.41510 | -68.51767 | 23973 ft | 467 kts | 262° |
| 2026-04-21 04:46 | 10.40998 | -68.55019 | 23975 ft | 467 kts | 262° |
| 2026-04-21 04:47 | 10.40485 | -68.58277 | 23968 ft | 466 kts | 262° |
| 2026-04-21 04:47 | 10.39975 | -68.61513 | 23968 ft | 466 kts | 262° |
| 2026-04-21 04:47 | 10.39462 | -68.64772 | 23974 ft | 466 kts | 262° |
| 2026-04-21 04:47 | 10.38947 | -68.68029 | 23974 ft | 466 kts | 262° |
| 2026-04-21 04:48 | 10.38440 | -68.71274 | 23974 ft | 466 kts | 262° |
| 2026-04-21 04:48 | 10.37958 | -68.74522 | 23967 ft | 466 kts | 262° |
| 2026-04-21 04:48 | 10.37486 | -68.77786 | 23978 ft | 466 kts | 262° |
| 2026-04-21 04:48 | 10.37018 | -68.81036 | 23968 ft | 466 kts | 262° |
| 2026-04-21 04:49 | 10.36549 | -68.84287 | 23977 ft | 466 kts | 262° |
| 2026-04-21 04:49 | 10.36075 | -68.87547 | 23699 ft | 463 kts | 262° |
| 2026-04-21 04:49 | 10.35605 | -68.90756 | 23004 ft | 456 kts | 262° |
| 2026-04-21 04:49 | 10.35298 | -68.92853 | 22521 ft | 449 kts | 262° |
| 2026-04-21 04:50 | 10.34842 | -68.95959 | 21768 ft | 440 kts | 262° |
| 2026-04-21 04:50 | 10.34395 | -68.99001 | 21025 ft | 433 kts | 262° |
| 2026-04-21 04:50 | 10.33955 | -69.01995 | 20281 ft | 425 kts | 262° |
| 2026-04-21 04:50 | 10.33503 | -69.04935 | 19556 ft | 419 kts | 259° |
| 2026-04-21 04:51 | 10.32597 | -69.07716 | 18827 ft | 413 kts | 244° |
| 2026-04-21 04:51 | 10.31100 | -69.10172 | 18124 ft | 407 kts | 232° |
| 2026-04-21 04:51 | 10.29161 | -69.12230 | 17424 ft | 401 kts | 223° |
| 2026-04-21 04:51 | 10.27105 | -69.14110 | 16713 ft | 395 kts | 222° |
| 2026-04-21 04:52 | 10.25066 | -69.15958 | 16023 ft | 390 kts | 222° |
| 2026-04-21 04:52 | 10.23060 | -69.17787 | 15342 ft | 385 kts | 222° |
| 2026-04-21 04:52 | 10.21083 | -69.19604 | 14649 ft | 381 kts | 222° |
| 2026-04-21 04:52 | 10.19133 | -69.21407 | 13999 ft | 377 kts | 223° |
| 2026-04-21 04:53 | 10.17216 | -69.23186 | 13340 ft | 372 kts | 223° |
| 2026-04-21 04:53 | 10.15308 | -69.24963 | 12686 ft | 369 kts | 223° |
| 2026-04-21 04:53 | 10.13425 | -69.26714 | 12031 ft | 365 kts | 223° |
| 2026-04-21 04:53 | 10.11563 | -69.28447 | 11393 ft | 361 kts | 223° |
| 2026-04-21 04:54 | 10.09721 | -69.30162 | 10763 ft | 357 kts | 222° |
| 2026-04-21 04:54 | 10.07933 | -69.31822 | 10617 ft | 340 kts | 222° |
| 2026-04-21 04:54 | 10.06231 | -69.33404 | 10468 ft | 324 kts | 222° |
| 2026-04-21 04:54 | 10.04781 | -69.35067 | 10298 ft | 311 kts | 239° |
| 2026-04-21 04:55 | 10.03974 | -69.37042 | 10192 ft | 297 kts | 257° |
| 2026-04-21 04:55 | 10.03593 | -69.39059 | 10081 ft | 285 kts | 261° |
| 2026-04-21 04:55 | 10.03300 | -69.41013 | 9900 ft | 277 kts | 262° |
| 2026-04-21 04:55 | 10.03017 | -69.42949 | 9572 ft | 276 kts | 262° |
| 2026-04-21 04:56 | 10.02730 | -69.44867 | 9250 ft | 274 kts | 261° |
| 2026-04-21 04:56 | 10.02439 | -69.46769 | 8937 ft | 272 kts | 261° |
| 2026-04-21 04:56 | 10.02144 | -69.48663 | 8620 ft | 271 kts | 261° |
| 2026-04-21 04:56 | 10.01847 | -69.50540 | 8305 ft | 268 kts | 261° |
| 2026-04-21 04:57 | 10.01558 | -69.52352 | 8019 ft | 258 kts | 261° |
| 2026-04-21 04:57 | 10.01274 | -69.54132 | 7709 ft | 246 kts | 261° |
| 2026-04-21 04:57 | 10.01012 | -69.55767 | 7411 ft | 231 kts | 261° |
| 2026-04-21 04:57 | 10.00798 | -69.57349 | 7119 ft | 215 kts | 271° |
| 2026-04-21 04:58 | 10.01321 | -69.58623 | 7034 ft | 192 kts | 318° |
| 2026-04-21 04:58 | 10.02489 | -69.59053 | 6938 ft | 176 kts | 8° |
| 2026-04-21 04:58 | 10.03547 | -69.58470 | 6409 ft | 178 kts | 58° |
| 2026-04-21 04:58 | 10.03718 | -69.57336 | 6145 ft | 158 kts | 111° |
| 2026-04-21 04:59 | 10.03063 | -69.56532 | 5990 ft | 145 kts | 131° |
| 2026-04-21 04:59 | 10.02614 | -69.55657 | 5862 ft | 139 kts | 106° |
| 2026-04-21 04:59 | 10.02303 | -69.54716 | 5658 ft | 141 kts | 105° |
| 2026-04-21 04:59 | 10.02109 | -69.53765 | 5481 ft | 140 kts | 101° |
| 2026-04-21 05:00 | 10.01937 | -69.52790 | 5286 ft | 140 kts | 93° |
| 2026-04-21 05:00 | 10.01947 | -69.51808 | 5103 ft | 139 kts | 87° |
| 2026-04-21 05:00 | 10.02087 | -69.49854 | 4711 ft | 138 kts | 81° |
| 2026-04-21 05:01 | 10.02226 | -69.48893 | 4515 ft | 138 kts | 80° |
| 2026-04-21 05:01 | 10.02375 | -69.47935 | 4320 ft | 138 kts | 80° |
| 2026-04-21 05:01 | 10.02524 | -69.46975 | 4126 ft | 137 kts | 80° |
| 2026-04-21 05:01 | 10.02672 | -69.46022 | 3933 ft | 137 kts | 79° |
| 2026-04-21 05:02 | 10.02821 | -69.45070 | 3742 ft | 136 kts | 79° |
| 2026-04-21 05:02 | 10.02970 | -69.44119 | 3548 ft | 136 kts | 79° |
| 2026-04-21 05:02 | 10.03118 | -69.43171 | 3357 ft | 136 kts | 79° |
| 2026-04-21 05:02 | 10.03264 | -69.42229 | 3164 ft | 135 kts | 79° |
| 2026-04-21 05:03 | 10.03412 | -69.41285 | 2977 ft | 135 kts | 79° |
| 2026-04-21 05:03 | 10.03559 | -69.40349 | 2777 ft | 134 kts | 80° |
| 2026-04-21 05:03 | 10.03705 | -69.39416 | 2586 ft | 134 kts | 80° |
| 2026-04-21 05:03 | 10.03851 | -69.38478 | 2408 ft | 135 kts | 80° |
| 2026-04-21 05:04 | 10.03987 | -69.37544 | 2180 ft | 133 kts | 81° |
| 2026-04-21 05:04 | 10.04097 | -69.36638 | 2062 ft | 126 kts | 83° |
| 2026-04-21 05:04 | 10.04261 | -69.35839 | 2047 ft | 97 kts | 81° |
| 2026-04-21 05:04 | 10.04338 | -69.35357 | 2040 ft | 57 kts | 80° |
| 2026-04-21 05:05 | 10.04390 | -69.35047 | 2037 ft | 34 kts | 81° |
| 2026-04-21 05:05 | 10.04422 | -69.34822 | 2038 ft | 30 kts | 83° |
| 2026-04-21 05:05 | 10.04452 | -69.34646 | 2040 ft | 20 kts | 68° |
| 2026-04-21 05:05 | 10.04546 | -69.34601 | 2042 ft | 12 kts | 348° |
| 2026-04-21 05:06 | 10.04610 | -69.34649 | 2048 ft | 12 kts | 291° |
| 2026-04-21 05:06 | 10.04610 | -69.34721 | 2046 ft | 10 kts | 261° |
| 2026-04-21 05:06 | 10.04599 | -69.34790 | 2046 ft | 10 kts | 261° |
| 2026-04-21 05:06 | 10.04588 | -69.34857 | 2046 ft | 9 kts | 261° |
| 2026-04-21 05:07 | 10.04578 | -69.34922 | 2048 ft | 9 kts | 260° |
| 2026-04-21 05:07 | 10.04568 | -69.34985 | 2049 ft | 9 kts | 263° |
| 2026-04-21 05:07 | 10.04560 | -69.35045 | 2047 ft | 9 kts | 264° |
| 2026-04-21 05:07 | 10.04551 | -69.35103 | 2049 ft | 8 kts | 259° |
| 2026-04-21 05:08 | 10.04541 | -69.35159 | 2047 ft | 8 kts | 262° |
| 2026-04-21 05:08 | 10.04533 | -69.35215 | 2050 ft | 8 kts | 261° |
| 2026-04-21 05:08 | 10.04524 | -69.35268 | 2048 ft | 8 kts | 260° |
| 2026-04-21 05:08 | 10.04515 | -69.35319 | 2050 ft | 7 kts | 260° |
| 2026-04-21 05:09 | 10.04507 | -69.35368 | 2047 ft | 7 kts | 260° |
| 2026-04-21 05:09 | 10.04499 | -69.35417 | 2050 ft | 7 kts | 260° |
| 2026-04-21 05:09 | 10.04491 | -69.35465 | 2047 ft | 7 kts | 260° |
| 2026-04-21 05:09 | 10.04483 | -69.35511 | 2047 ft | 7 kts | 261° |
| 2026-04-21 05:10 | 10.04476 | -69.35556 | 2047 ft | 6 kts | 261° |
| 2026-04-21 05:10 | 10.04473 | -69.35602 | 2047 ft | 6 kts | 268° |
| 2026-04-21 05:10 | 10.04468 | -69.35646 | 2047 ft | 6 kts | 258° |
| 2026-04-21 05:10 | 10.04460 | -69.35689 | 2050 ft | 7 kts | 261° |
| 2026-04-21 05:11 | 10.04451 | -69.35746 | 2049 ft | 10 kts | 261° |
| 2026-04-21 05:11 | 10.04438 | -69.35829 | 2047 ft | 8 kts | 261° |
| 2026-04-21 05:11 | 10.04431 | -69.35874 | 2047 ft | 6 kts | 261° |
| 2026-04-21 05:11 | 10.04425 | -69.35915 | 2050 ft | 6 kts | 267° |
| 2026-04-21 05:12 | 10.04450 | -69.35946 | 2051 ft | 6 kts | 334° |
| 2026-04-21 05:12 | 10.04490 | -69.35953 | 2048 ft | 6 kts | 351° |
| 2026-04-21 05:12 | 10.04502 | -69.35955 | 2051 ft | 0 kts | 351° |
| 2026-04-21 05:12 | 10.04514 | -69.35957 | 2048 ft | 3 kts | 351° |
| 2026-04-21 05:13 | 10.04527 | -69.35959 | 2048 ft | 0 kts | 351° |
| 2026-04-21 05:13 | 10.04532 | -69.35959 | 2048 ft | 2 kts | 351° |
| 2026-04-21 05:13 | 10.04536 | -69.35960 | 2048 ft | 0 kts | 351° |
| 2026-04-21 05:13 | 10.04537 | -69.35960 | 2048 ft | 0 kts | 351° |